sensor_id;sensor_type;location;lat;lon;timestamp;P1;durP1;ratioP1;P2;durP2;ratioP2
26914;SDS011;14480;52.608;13.416;2023-08-21T09:51:18;4.35;;;1.85;;
26914;SDS011;14480;52.608;13.416;2023-08-21T09:56:24;3.35;;;1.60;;
26914;SDS011;14480;52.608;13.416;2023-08-21T10:01:31;5.50;;;2.30;;
26914;SDS011;14480;52.608;13.416;2023-08-21T10:06:41;3.95;;;1.73;;
26914;SDS011;14480;52.608;13.416;2023-08-21T10:11:47;3.58;;;1.40;;
26914;SDS011;14480;52.608;13.416;2023-08-21T10:16:52;5.57;;;1.55;;
26914;SDS011;14480;52.608;13.416;2023-08-21T10:21:58;6.05;;;2.00;;
26914;SDS011;14480;52.608;13.416;2023-08-21T10:27:03;7.15;;;1.80;;
26914;SDS011;14480;52.608;13.416;2023-08-21T10:32:07;7.75;;;1.55;;
26914;SDS011;14480;52.608;13.416;2023-08-21T10:37:13;3.70;;;1.40;;
26914;SDS011;14480;52.608;13.416;2023-08-21T10:42:17;7.43;;;1.67;;
26914;SDS011;14480;52.608;13.416;2023-08-21T10:47:21;6.72;;;1.67;;
26914;SDS011;14480;52.608;13.416;2023-08-21T10:52:27;6.13;;;1.63;;
26914;SDS011;14480;52.608;13.416;2023-08-21T10:57:32;4.82;;;1.58;;
26914;SDS011;14480;52.608;13.416;2023-08-21T11:02:37;7.22;;;1.65;;
26914;SDS011;14480;52.608;13.416;2023-08-21T11:07:44;7.22;;;1.58;;
26914;SDS011;14480;52.608;13.416;2023-08-21T11:12:49;3.60;;;1.40;;
26914;SDS011;14480;52.608;13.416;2023-08-21T11:17:59;7.00;;;1.70;;
26914;SDS011;14480;52.608;13.416;2023-08-21T11:31:57;6.75;;;1.30;;
26914;SDS011;14480;52.608;13.416;2023-08-21T11:37:02;7.00;;;1.23;;
26914;SDS011;14480;52.608;13.416;2023-08-21T11:42:08;3.67;;;1.30;;
26914;SDS011;14480;52.608;13.416;2023-08-21T11:47:15;3.33;;;1.52;;
26914;SDS011;14480;52.608;13.416;2023-08-21T11:52:20;6.72;;;1.52;;
26914;SDS011;14480;52.608;13.416;2023-08-21T11:57:27;6.97;;;1.85;;
26914;SDS011;14480;52.608;13.416;2023-08-21T12:02:34;6.22;;;1.95;;
26914;SDS011;14480;52.608;13.416;2023-08-21T12:07:37;9.23;;;1.77;;
26914;SDS011;14480;52.608;13.416;2023-08-21T12:12:42;5.57;;;1.60;;
26914;SDS011;14480;52.608;13.416;2023-08-21T12:17:47;5.22;;;1.80;;
26914;SDS011;14480;52.608;13.416;2023-08-21T12:22:51;3.67;;;1.30;;
26914;SDS011;14480;52.608;13.416;2023-08-21T12:27:55;7.38;;;1.80;;
26914;SDS011;14480;52.608;13.416;2023-08-21T12:33:12;4.40;;;1.30;;
26914;SDS011;14480;52.608;13.416;2023-08-21T12:38:25;5.93;;;1.60;;
26914;SDS011;14480;52.608;13.416;2023-08-21T12:43:31;4.30;;;1.33;;
26914;SDS011;14480;52.608;13.416;2023-08-21T12:48:37;5.97;;;1.40;;
26914;SDS011;14480;52.608;13.416;2023-08-21T12:53:40;3.17;;;1.30;;
26914;SDS011;14480;52.608;13.416;2023-08-21T12:58:45;4.47;;;1.20;;
26914;SDS011;14480;52.608;13.416;2023-08-21T13:03:53;7.20;;;1.42;;
26914;SDS011;14480;52.608;13.416;2023-08-21T13:08:57;3.20;;;1.10;;
26914;SDS011;14480;52.608;13.416;2023-08-21T13:14:00;5.35;;;1.50;;
26914;SDS011;14480;52.608;13.416;2023-08-21T13:19:06;5.45;;;1.38;;
26914;SDS011;14480;52.608;13.416;2023-08-21T13:24:09;4.43;;;1.48;;
26914;SDS011;14480;52.608;13.416;2023-08-21T13:29:13;8.23;;;2.60;;
26914;SDS011;14480;52.608;13.416;2023-08-21T13:34:18;5.10;;;1.50;;
26914;SDS011;14480;52.608;13.416;2023-08-21T13:39:22;7.15;;;1.42;;
26914;SDS011;14480;52.608;13.416;2023-08-21T13:44:28;5.95;;;1.75;;
26914;SDS011;14480;52.608;13.416;2023-08-21T13:49:37;5.05;;;1.30;;
26914;SDS011;14480;52.608;13.416;2023-08-21T13:54:42;6.63;;;2.05;;
26914;SDS011;14480;52.608;13.416;2023-08-21T13:59:46;6.20;;;1.98;;
26914;SDS011;14480;52.608;13.416;2023-08-21T14:04:54;4.43;;;1.60;;
26914;SDS011;14480;52.608;13.416;2023-08-21T14:09:58;6.55;;;1.42;;
26914;SDS011;14480;52.608;13.416;2023-08-21T14:15:03;8.07;;;2.05;;
26914;SDS011;14480;52.608;13.416;2023-08-21T14:20:09;5.25;;;1.70;;
26914;SDS011;14480;52.608;13.416;2023-08-21T14:25:19;10.93;;;1.33;;
26914;SDS011;14480;52.608;13.416;2023-08-21T14:30:23;5.13;;;1.13;;
26914;SDS011;14480;52.608;13.416;2023-08-21T14:35:33;2.22;;;0.90;;
26914;SDS011;14480;52.608;13.416;2023-08-21T14:40:37;4.43;;;1.33;;
26914;SDS011;14480;52.608;13.416;2023-08-21T14:45:41;3.90;;;1.00;;
26914;SDS011;14480;52.608;13.416;2023-08-21T14:50:51;3.88;;;1.10;;
26914;SDS011;14480;52.608;13.416;2023-08-21T14:55:55;3.55;;;1.13;;
26914;SDS011;14480;52.608;13.416;2023-08-21T15:00:59;3.45;;;1.10;;
26914;SDS011;14480;52.608;13.416;2023-08-21T15:06:06;3.63;;;1.33;;
26914;SDS011;14480;52.608;13.416;2023-08-21T15:11:10;5.45;;;1.10;;
26914;SDS011;14480;52.608;13.416;2023-08-21T15:16:14;4.05;;;1.17;;
26914;SDS011;14480;52.608;13.416;2023-08-21T15:26:22;2.42;;;1.10;;
26914;SDS011;14480;52.608;13.416;2023-08-21T15:31:26;4.57;;;1.33;;
26914;SDS011;14480;52.608;13.416;2023-08-21T15:36:32;5.78;;;1.30;;
26914;SDS011;14480;52.608;13.416;2023-08-21T15:41:35;4.28;;;1.33;;
26914;SDS011;14480;52.608;13.416;2023-08-21T15:46:44;4.53;;;1.25;;
26914;SDS011;14480;52.608;13.416;2023-08-21T15:51:52;3.60;;;1.15;;
26914;SDS011;14480;52.608;13.416;2023-08-21T15:57:00;6.55;;;1.20;;
26914;SDS011;14480;52.608;13.416;2023-08-21T16:02:15;2.78;;;1.10;;
26914;SDS011;14480;52.608;13.416;2023-08-21T16:07:28;8.13;;;1.90;;
26914;SDS011;14480;52.608;13.416;2023-08-21T16:12:35;4.60;;;1.50;;
26914;SDS011;14480;52.608;13.416;2023-08-21T16:18:06;3.03;;;1.23;;
26914;SDS011;14480;52.608;13.416;2023-08-21T16:23:18;3.13;;;1.10;;
26914;SDS011;14480;52.608;13.416;2023-08-21T16:28:36;3.97;;;1.20;;
26914;SDS011;14480;52.608;13.416;2023-08-21T16:38:53;3.33;;;1.13;;
26914;SDS011;14480;52.608;13.416;2023-08-21T16:43:57;3.45;;;1.10;;
26914;SDS011;14480;52.608;13.416;2023-08-21T16:49:03;5.53;;;1.20;;
26914;SDS011;14480;52.608;13.416;2023-08-21T16:54:12;4.32;;;1.40;;
26914;SDS011;14480;52.608;13.416;2023-08-21T16:59:15;6.00;;;1.38;;
26914;SDS011;14480;52.608;13.416;2023-08-21T17:04:20;4.55;;;1.30;;
26914;SDS011;14480;52.608;13.416;2023-08-21T17:14:29;7.40;;;1.58;;
26914;SDS011;14480;52.608;13.416;2023-08-21T17:19:32;7.45;;;1.52;;
26914;SDS011;14480;52.608;13.416;2023-08-21T17:24:42;9.07;;;1.75;;
26914;SDS011;14480;52.608;13.416;2023-08-21T17:29:46;6.40;;;1.88;;
26914;SDS011;14480;52.608;13.416;2023-08-21T17:34:49;8.00;;;1.70;;
26914;SDS011;14480;52.608;13.416;2023-08-21T17:39:55;4.50;;;1.40;;
26914;SDS011;14480;52.608;13.416;2023-08-21T17:45:06;5.25;;;1.50;;
26914;SDS011;14480;52.608;13.416;2023-08-21T17:50:13;4.20;;;1.38;;
26914;SDS011;14480;52.608;13.416;2023-08-21T17:55:18;4.97;;;1.38;;
26914;SDS011;14480;52.608;13.416;2023-08-21T18:00:48;5.45;;;1.40;;
26914;SDS011;14480;52.608;13.416;2023-08-21T18:05:52;6.32;;;1.50;;
26914;SDS011;14480;52.608;13.416;2023-08-21T18:16:02;6.60;;;1.70;;
26914;SDS011;14480;52.608;13.416;2023-08-21T18:21:06;7.45;;;1.83;;
26914;SDS011;14480;52.608;13.416;2023-08-21T18:31:18;5.65;;;2.33;;
26914;SDS011;14480;52.608;13.416;2023-08-21T18:36:25;5.65;;;2.33;;
26914;SDS011;14480;52.608;13.416;2023-08-21T18:41:37;5.00;;;1.88;;
26914;SDS011;14480;52.608;13.416;2023-08-21T18:46:45;8.15;;;2.00;;
26914;SDS011;14480;52.608;13.416;2023-08-21T18:51:51;4.20;;;2.00;;
26914;SDS011;14480;52.608;13.416;2023-08-21T18:56:57;8.07;;;2.50;;
26914;SDS011;14480;52.608;13.416;2023-08-21T19:02:01;11.20;;;3.30;;
26914;SDS011;14480;52.608;13.416;2023-08-21T19:07:05;6.00;;;2.13;;
26914;SDS011;14480;52.608;13.416;2023-08-21T19:12:11;9.07;;;3.00;;
26914;SDS011;14480;52.608;13.416;2023-08-21T19:17:14;5.57;;;3.03;;
26914;SDS011;14480;52.608;13.416;2023-08-21T19:22:21;3.28;;;1.80;;
26914;SDS011;14480;52.608;13.416;2023-08-21T19:27:26;6.03;;;2.20;;
26914;SDS011;14480;52.608;13.416;2023-08-21T19:32:32;6.28;;;2.30;;
26914;SDS011;14480;52.608;13.416;2023-08-21T19:37:38;7.15;;;1.90;;
26914;SDS011;14480;52.608;13.416;2023-08-21T19:42:44;8.80;;;2.28;;
26914;SDS011;14480;52.608;13.416;2023-08-21T19:47:50;7.10;;;2.67;;
26914;SDS011;14480;52.608;13.416;2023-08-21T19:52:54;8.82;;;2.65;;
26914;SDS011;14480;52.608;13.416;2023-08-21T19:57:59;12.55;;;2.95;;
26914;SDS011;14480;52.608;13.416;2023-08-21T20:03:03;8.73;;;2.35;;
26914;SDS011;14480;52.608;13.416;2023-08-21T20:13:15;10.75;;;2.92;;
26914;SDS011;14480;52.608;13.416;2023-08-21T20:18:20;9.52;;;3.22;;
26914;SDS011;14480;52.608;13.416;2023-08-21T20:23:24;9.43;;;2.30;;
26914;SDS011;14480;52.608;13.416;2023-08-21T20:28:29;6.15;;;2.40;;
26914;SDS011;14480;52.608;13.416;2023-08-21T20:33:33;8.73;;;3.00;;
26914;SDS011;14480;52.608;13.416;2023-08-21T20:38:36;9.93;;;3.70;;
26914;SDS011;14480;52.608;13.416;2023-08-21T20:43:41;6.17;;;2.53;;
26914;SDS011;14480;52.608;13.416;2023-08-21T20:48:48;6.90;;;2.90;;
26914;SDS011;14480;52.608;13.416;2023-08-21T20:53:52;9.03;;;3.30;;
26914;SDS011;14480;52.608;13.416;2023-08-21T20:58:57;8.60;;;2.90;;
26914;SDS011;14480;52.608;13.416;2023-08-21T21:04:03;14.05;;;3.42;;
26914;SDS011;14480;52.608;13.416;2023-08-21T21:09:07;8.38;;;2.83;;
26914;SDS011;14480;52.608;13.416;2023-08-21T21:14:12;10.90;;;3.17;;
